Time;durP1;ratioP1;P1;durP2;ratioP2;P2;SDS_P1;SDS_P2;PMS_P1;PMS_P2;Temp;Humidity;BMP_temperature;BMP_pressure;BME280_temperature;BME280_humidity;BME280_pressure;Samples;Min_cycle;Max_cycle;Signal;HPM_P1;HPM_P2
2021/05/21 00:01:13;;;;;;;1.60;1.30;;;;;;;5.57;83.73;95611.25;5104993;28;20043;-74
2021/05/21 00:03:39;;;;;;;1.77;1.30;;;;;;;5.59;83.09;95604.75;5110132;28;20485;-74
2021/05/21 00:06:05;;;;;;;1.77;1.30;;;;;;;5.52;83.45;95591.84;5102064;28;20044;-74
2021/05/21 00:08:31;;;;;;;1.45;1.30;;;;;;;5.51;83.46;95597.31;5103089;28;20044;-73
2021/05/21 00:10:56;;;;;;;1.35;1.25;;;;;;;5.47;84.43;95590.97;5106861;28;20123;-74
2021/05/21 00:13:22;;;;;;;1.85;1.27;;;;;;;5.46;83.96;95578.94;5109782;28;20504;-74
2021/05/21 00:15:47;;;;;;;2.05;1.40;;;;;;;5.38;85.59;95578.28;5104307;28;20040;-74
2021/05/21 00:18:13;;;;;;;2.20;1.35;;;;;;;5.40;84.94;95579.88;5099723;28;20119;-74
2021/05/21 00:20:38;;;;;;;2.47;1.42;;;;;;;5.40;84.75;95569.44;5100728;28;20032;-74
2021/05/21 00:23:04;;;;;;;1.95;1.30;;;;;;;5.40;85.55;95574.66;5094566;28;20044;-74
2021/05/21 00:25:29;;;;;;;1.70;1.40;;;;;;;5.46;84.66;95568.50;5105811;28;20035;-74
2021/05/21 00:27:55;;;;;;;2.55;1.58;;;;;;;5.41;84.66;95568.41;5103437;28;20040;-74
2021/05/21 00:30:21;;;;;;;1.42;1.33;;;;;;;5.27;84.84;95560.88;5090805;28;20052;-74
2021/05/21 00:32:46;;;;;;;2.28;1.55;;;;;;;5.22;85.96;95550.34;5103820;28;20035;-73
2021/05/21 00:35:12;;;;;;;1.30;1.20;;;;;;;5.24;85.42;95553.50;5100740;28;20036;-74
2021/05/21 00:37:38;;;;;;;2.10;1.52;;;;;;;5.26;84.61;95538.41;5102727;28;20077;-73
2021/05/21 00:40:04;;;;;;;1.92;1.48;;;;;;;5.19;85.47;95537.78;5094165;28;20113;-73
2021/05/21 00:42:29;;;;;;;1.88;1.50;;;;;;;5.21;85.13;95535.72;5095322;28;20040;-74
2021/05/21 00:44:56;;;;;;;2.38;1.50;;;;;;;5.21;85.63;95538.31;5098541;28;20047;-74
2021/05/21 00:47:22;;;;;;;1.55;1.30;;;;;;;5.15;86.07;95526.22;5105021;28;20044;-75
2021/05/21 00:49:48;;;;;;;1.67;1.40;;;;;;;5.15;85.37;95521.00;5093441;28;20040;-74
2021/05/21 00:52:16;;;;;;;2.72;1.40;;;;;;;5.07;86.70;95523.97;5094629;28;20495;-74
2021/05/21 00:54:41;;;;;;;1.98;1.45;;;;;;;5.07;86.80;95518.75;5107385;28;20056;-74
2021/05/21 00:57:07;;;;;;;1.60;1.20;;;;;;;5.05;86.26;95521.59;5095101;28;20509;-75
2021/05/21 00:59:34;;;;;;;2.75;1.50;;;;;;;5.00;85.86;95519.72;5093569;28;20428;-74
2021/05/21 01:02:00;;;;;;;1.40;1.30;;;;;;;4.97;86.18;95514.97;5101159;28;20048;-73
2021/05/21 01:04:26;;;;;;;2.38;1.45;;;;;;;4.97;86.10;95514.97;5105190;28;20032;-74
2021/05/21 01:06:51;;;;;;;2.80;1.50;;;;;;;4.95;85.87;95522.22;5101538;28;20085;-74
2021/05/21 01:09:17;;;;;;;1.80;1.40;;;;;;;4.97;85.76;95509.75;5097480;28;20514;-74
2021/05/21 01:11:42;;;;;;;1.60;1.42;;;;;;;4.94;85.68;95512.81;5093001;28;20048;-74
2021/05/21 01:14:08;;;;;;;1.98;1.50;;;;;;;4.89;85.93;95510.13;5094365;28;20101;-73
2021/05/21 01:16:33;;;;;;;1.88;1.55;;;;;;;4.88;85.79;95500.69;5106019;28;20043;-73
2021/05/21 01:19:03;;;;;;;1.58;1.48;;;;;;;4.81;86.73;95506.06;5096827;28;20532;-74
2021/05/21 01:21:31;;;;;;;2.30;1.45;;;;;;;4.82;86.85;95506.84;5105134;28;20043;-74
2021/05/21 01:23:57;;;;;;;1.88;1.42;;;;;;;4.84;86.49;95502.19;5093720;28;20040;-74
2021/05/21 01:26:24;;;;;;;3.10;1.48;;;;;;;4.82;86.12;95496.41;5101167;28;20040;-74
2021/05/21 01:28:51;;;;;;;1.63;1.35;;;;;;;4.95;84.95;95488.31;5108387;28;20070;-73
2021/05/21 01:31:17;;;;;;;1.27;1.10;;;;;;;4.92;84.98;95491.38;5111883;28;20031;-75
2021/05/21 01:33:43;;;;;;;1.40;1.30;;;;;;;4.71;86.01;95490.22;5112684;28;20044;-75
2021/05/21 01:36:08;;;;;;;1.75;1.35;;;;;;;4.64;86.37;95482.53;5098852;28;20032;-74
2021/05/21 01:38:36;;;;;;;2.47;1.40;;;;;;;4.63;86.96;95488.78;5103922;28;20036;-74
2021/05/21 01:41:02;;;;;;;1.30;1.20;;;;;;;4.66;86.50;95483.09;5106827;28;20052;-73
2021/05/21 01:43:28;;;;;;;3.63;1.40;;;;;;;4.71;85.93;95482.38;5101935;28;20412;-74
2021/05/21 01:45:54;;;;;;;1.60;1.40;;;;;;;4.73;86.10;95482.19;5093621;28;20063;-74
2021/05/21 01:48:20;;;;;;;3.30;1.63;;;;;;;4.68;86.83;95478.47;5106616;28;20485;-74
2021/05/21 01:50:45;;;;;;;1.75;1.35;;;;;;;4.67;87.00;95479.47;5111323;28;20485;-75
2021/05/21 01:53:11;;;;;;;1.75;1.25;;;;;;;4.64;87.43;95476.53;5111796;28;20050;-74
2021/05/21 01:55:37;;;;;;;2.00;1.50;;;;;;;4.71;86.76;95471.19;5109897;28;20043;-74
2021/05/21 01:58:03;;;;;;;2.03;1.50;;;;;;;4.81;86.52;95472.19;5100015;28;20044;-74
2021/05/21 02:00:29;;;;;;;5.13;1.45;;;;;;;4.79;86.37;95460.38;5103530;28;20036;-74
2021/05/21 02:02:55;;;;;;;3.80;1.60;;;;;;;4.84;86.31;95452.63;5110602;28;20104;-74
2021/05/21 02:05:20;;;;;;;1.80;1.40;;;;;;;4.88;86.25;95443.31;5107663;28;20036;-74
2021/05/21 02:07:47;;;;;;;1.30;1.20;;;;;;;4.82;86.56;95433.84;5104023;28;20035;-75
2021/05/21 02:10:14;;;;;;;1.65;1.30;;;;;;;4.72;86.67;95444.09;5096665;28;20252;-74
2021/05/21 02:12:43;;;;;;;1.33;1.20;;;;;;;4.68;86.69;95439.34;5104900;28;20102;-74
2021/05/21 02:15:09;;;;;;;1.42;1.33;;;;;;;4.78;86.97;95427.50;5101729;28;20040;-74
2021/05/21 02:17:35;;;;;;;2.72;1.30;;;;;;;4.84;86.47;95429.97;5102273;28;20061;-74
2021/05/21 02:20:02;;;;;;;4.20;1.40;;;;;;;4.96;86.07;95429.13;5113167;28;20489;-74
2021/05/21 02:22:29;;;;;;;3.03;1.20;;;;;;;5.03;85.75;95432.38;5113364;28;20046;-74
2021/05/21 02:24:57;;;;;;;1.10;1.00;;;;;;;5.05;85.91;95427.72;5105986;28;20040;-76
2021/05/21 02:27:23;;;;;;;1.92;1.30;;;;;;;5.03;85.99;95420.13;5097733;28;20055;-74
2021/05/21 02:29:49;;;;;;;1.23;1.13;;;;;;;5.02;85.82;95413.31;5110282;28;20031;-74
2021/05/21 02:32:15;;;;;;;1.48;1.20;;;;;;;5.09;85.64;95409.78;5096830;27;20089;-74
2021/05/21 02:34:41;;;;;;;1.13;1.10;;;;;;;5.23;84.91;95397.19;5101575;28;20044;-75
2021/05/21 02:37:07;;;;;;;1.40;1.10;;;;;;;5.31;83.95;95405.41;5105198;28;20040;-74
2021/05/21 02:39:32;;;;;;;1.20;1.10;;;;;;;5.38;83.65;95395.59;5098080;28;20068;-75
2021/05/21 02:41:58;;;;;;;1.08;1.08;;;;;;;5.58;83.53;95394.31;5104628;28;20113;-76
2021/05/21 02:44:23;;;;;;;1.00;1.00;;;;;;;5.60;82.77;95410.53;5109007;28;20043;-74
2021/05/21 02:46:49;;;;;;;1.13;1.02;;;;;;;5.72;81.83;95400.00;5098431;28;20043;-74
2021/05/21 02:49:24;;;;;;;3.80;0.98;;;;;;;5.77;81.90;95401.88;5092508;28;20519;-74
2021/05/21 02:51:52;;;;;;;0.93;0.90;;;;;;;5.92;80.87;95404.69;5097923;28;20100;-74
2021/05/21 02:54:18;;;;;;;0.93;0.90;;;;;;;5.98;80.70;95392.53;5112646;28;20420;-74
2021/05/21 02:56:44;;;;;;;0.80;0.80;;;;;;;6.14;80.11;95390.88;5101986;28;20115;-74
2021/05/21 02:59:10;;;;;;;1.10;1.00;;;;;;;6.22;79.84;95395.66;5111951;27;20051;-74
2021/05/21 03:01:35;;;;;;;0.85;0.85;;;;;;;6.23;80.11;95389.41;5110091;27;20044;-74
2021/05/21 03:04:01;;;;;;;0.80;0.80;;;;;;;6.37;79.02;95390.63;5103806;28;20035;-74
2021/05/21 03:06:27;;;;;;;1.55;0.98;;;;;;;6.35;79.05;95387.47;5105213;28;20036;-75
2021/05/21 03:08:53;;;;;;;1.02;0.90;;;;;;;6.38;78.48;95394.81;5105038;28;20048;-74
2021/05/21 03:11:19;;;;;;;1.08;1.08;;;;;;;6.34;79.49;95391.09;5097819;28;20043;-72
2021/05/21 03:13:45;;;;;;;0.77;0.77;;;;;;;6.27;78.74;95398.34;5109653;28;20036;-74
2021/05/21 03:16:11;;;;;;;0.90;0.90;;;;;;;6.23;80.04;95384.19;5107446;28;20637;-74
2021/05/21 03:18:36;;;;;;;0.98;0.98;;;;;;;6.21;80.35;95386.25;5109824;28;20035;-74
2021/05/21 03:21:03;;;;;;;0.85;0.85;;;;;;;6.30;80.12;95378.78;5110876;28;20043;-74
2021/05/21 03:23:28;;;;;;;1.50;1.10;;;;;;;6.26;80.45;95378.47;5107604;28;20115;-74
2021/05/21 03:25:54;;;;;;;3.08;0.90;;;;;;;6.27;80.93;95374.81;5110918;28;20200;-74
2021/05/21 03:28:20;;;;;;;1.63;1.05;;;;;;;6.22;81.05;95377.38;5110586;28;20054;-74
2021/05/21 03:30:45;;;;;;;0.80;0.80;;;;;;;6.33;79.21;95379.06;5111947;28;20381;-75
2021/05/21 03:33:11;;;;;;;1.05;1.05;;;;;;;6.33;80.24;95379.06;5107556;28;20047;-74
2021/05/21 03:35:37;;;;;;;0.90;0.90;;;;;;;6.32;80.78;95367.06;5102261;28;20043;-74
2021/05/21 03:38:04;;;;;;;1.08;0.98;;;;;;;6.33;80.46;95373.06;5106058;28;20050;-74
2021/05/21 03:40:31;;;;;;;0.70;0.70;;;;;;;6.44;79.09;95368.72;5093299;28;20052;-74
2021/05/21 03:42:58;;;;;;;1.00;0.90;;;;;;;6.52;78.89;95363.84;5103014;28;20044;-74
2021/05/21 03:45:24;;;;;;;0.82;0.75;;;;;;;6.57;78.09;95357.88;5093827;28;20055;-74
2021/05/21 03:47:49;;;;;;;1.15;0.73;;;;;;;6.59;78.96;95355.78;5102242;28;20386;-74
2021/05/21 03:50:18;;;;;;;0.95;0.90;;;;;;;6.66;77.51;95348.53;5107957;28;20050;-74
2021/05/21 03:52:44;;;;;;;2.45;0.90;;;;;;;6.74;77.71;95348.09;5096535;28;20055;-74
2021/05/21 03:55:10;;;;;;;1.05;0.80;;;;;;;6.80;76.87;95350.75;5110912;28;20445;-74
2021/05/21 03:57:37;;;;;;;1.95;1.10;;;;;;;6.89;76.28;95344.03;5108426;28;20051;-75
2021/05/21 04:00:10;;;;;;;0.70;0.70;;;;;;;7.02;75.42;95340.19;5106782;28;20263;-74
2021/05/21 04:02:36;;;;;;;1.02;0.77;;;;;;;7.10;74.63;95339.75;5105932;28;20043;-74
2021/05/21 04:05:04;;;;;;;1.48;0.70;;;;;;;7.17;74.81;95334.28;5101597;28;20490;-75
2021/05/21 04:07:30;;;;;;;1.17;0.90;;;;;;;7.24;73.14;95337.47;5099979;28;20046;-73
2021/05/21 04:09:55;;;;;;;0.45;0.45;;;;;;;7.34;73.56;95329.72;5097418;28;20036;-74
2021/05/21 04:12:21;;;;;;;0.55;0.55;;;;;;;7.39;73.80;95331.56;5099665;28;20118;-74
2021/05/21 04:14:47;;;;;;;2.08;0.80;;;;;;;7.41;73.91;95329.47;5099130;28;20101;-74
2021/05/21 04:17:13;;;;;;;0.85;0.85;;;;;;;7.56;72.39;95321.69;5097967;28;20520;-74
2021/05/21 04:19:38;;;;;;;1.85;0.80;;;;;;;7.58;72.02;95329.28;5106846;28;20039;-74
2021/05/21 04:22:04;;;;;;;2.15;0.93;;;;;;;7.68;71.68;95329.34;5103428;28;20040;-74
2021/05/21 04:24:29;;;;;;;0.90;0.68;;;;;;;7.70;72.06;95327.28;5109220;28;20474;-74
2021/05/21 04:26:55;;;;;;;2.28;0.90;;;;;;;7.76;71.82;95323.63;5101598;28;20047;-74
2021/05/21 04:29:21;;;;;;;0.80;0.80;;;;;;;7.87;70.57;95321.03;5106381;28;20063;-74
2021/05/21 04:31:46;;;;;;;0.70;0.70;;;;;;;7.93;69.25;95314.78;5110512;28;20076;-74
2021/05/21 04:34:12;;;;;;;0.73;0.73;;;;;;;7.89;71.52;95318.97;5108490;28;20046;-73
2021/05/21 04:36:37;;;;;;;1.13;1.00;;;;;;;7.94;69.72;95306.69;5103369;28;20036;-74
2021/05/21 04:39:04;;;;;;;1.40;0.60;;;;;;;8.01;69.99;95311.66;5101028;28;20489;-74
2021/05/21 04:41:31;;;;;;;0.82;0.70;;;;;;;8.02;69.65;95313.25;5110854;28;20054;-74
2021/05/21 04:43:56;;;;;;;1.35;0.47;;;;;;;8.12;69.45;95315.09;5105665;28;20115;-72
2021/05/21 04:46:22;;;;;;;1.35;0.77;;;;;;;8.13;70.18;95314.84;5103227;28;20111;-73
2021/05/21 04:48:47;;;;;;;0.70;0.70;;;;;;;8.19;68.63;95320.09;5106982;28;20043;-73
2021/05/21 04:51:13;;;;;;;1.55;0.80;;;;;;;8.35;67.81;95326.97;5097007;28;20039;-75
2021/05/21 04:53:41;;;;;;;1.00;0.80;;;;;;;8.46;68.16;95318.09;5110100;28;20118;-75
2021/05/21 04:56:08;;;;;;;0.93;0.88;;;;;;;8.54;67.80;95321.25;5108112;28;20043;-72
2021/05/21 04:58:34;;;;;;;0.90;0.85;;;;;;;8.60;67.34;95322.81;5093703;28;20071;-72
2021/05/21 05:01:00;;;;;;;0.85;0.82;;;;;;;8.77;66.89;95318.13;5110516;28;20043;-72
2021/05/21 05:03:26;;;;;;;2.42;0.85;;;;;;;8.82;65.83;95320.75;5110571;28;20040;-72
2021/05/21 05:05:51;;;;;;;0.88;0.77;;;;;;;8.97;66.92;95327.03;5094149;28;20513;-72
2021/05/21 05:08:17;;;;;;;1.40;0.77;;;;;;;9.08;65.59;95320.75;5097746;28;20625;-72
2021/05/21 05:10:48;;;;;;;0.70;0.57;;;;;;;9.10;64.99;95316.00;5111240;28;20051;-72
2021/05/21 05:13:14;;;;;;;1.42;0.80;;;;;;;9.22;64.27;95323.59;5094105;28;20036;-72
2021/05/21 05:15:40;;;;;;;5.75;1.13;;;;;;;9.36;64.08;95318.59;5100428;28;20040;-72
2021/05/21 05:18:08;;;;;;;0.68;0.60;;;;;;;9.59;63.62;95314.59;5107386;28;20148;-73
2021/05/21 05:20:34;;;;;;;0.75;0.55;;;;;;;9.65;63.22;95315.38;5114774;28;20075;-73
2021/05/21 05:23:01;;;;;;;2.35;0.75;;;;;;;9.67;62.99;95308.03;5113802;28;20108;-72
2021/05/21 05:25:28;;;;;;;0.93;0.80;;;;;;;9.79;62.91;95305.88;5094199;28;20459;-72
2021/05/21 05:27:54;;;;;;;0.77;0.77;;;;;;;9.88;62.43;95308.72;5109099;28;20040;-72
2021/05/21 05:30:20;;;;;;;1.42;0.98;;;;;;;9.98;61.91;95307.88;5114733;28;20497;-73
2021/05/21 05:32:46;;;;;;;1.38;1.00;;;;;;;10.15;61.27;95313.59;5111840;28;20054;-72
2021/05/21 05:35:12;;;;;;;0.90;0.60;;;;;;;10.21;61.01;95307.25;5112418;28;20493;-72
2021/05/21 05:37:38;;;;;;;1.35;0.80;;;;;;;10.26;60.02;95303.00;5109737;28;20040;-72
2021/05/21 05:40:05;;;;;;;0.77;0.73;;;;;;;10.29;61.05;95307.75;5113285;28;20046;-73
2021/05/21 05:42:30;;;;;;;1.35;1.00;;;;;;;10.36;60.14;95308.25;5114661;28;20063;-72
2021/05/21 05:44:56;;;;;;;1.90;1.00;;;;;;;10.39;60.81;95307.72;5113923;28;20407;-73
2021/05/21 05:47:21;;;;;;;1.23;1.00;;;;;;;10.42;59.29;95301.91;5106925;28;20036;-72
2021/05/21 05:49:47;;;;;;;1.27;0.80;;;;;;;10.41;60.86;95295.06;5105999;28;20039;-73
2021/05/21 05:52:12;;;;;;;1.42;0.80;;;;;;;10.61;59.44;95293.38;5114079;28;20075;-73
2021/05/21 05:54:38;;;;;;;0.85;0.80;;;;;;;10.62;59.89;95285.19;5113852;28;20051;-73
2021/05/21 05:57:04;;;;;;;1.23;0.98;;;;;;;10.68;59.25;95288.56;5103826;28;20097;-72
2021/05/21 05:59:30;;;;;;;1.38;0.70;;;;;;;10.84;60.00;95286.59;5109245;28;20040;-73
2021/05/21 06:01:56;;;;;;;1.75;0.70;;;;;;;10.82;59.07;95289.50;5113781;28;20511;-72
2021/05/21 06:04:22;;;;;;;2.13;1.10;;;;;;;10.98;59.29;95292.03;5113472;28;20111;-72
2021/05/21 06:06:48;;;;;;;0.80;0.80;;;;;;;11.04;58.85;95285.66;5105832;27;20040;-72
2021/05/21 06:09:14;;;;;;;0.93;0.82;;;;;;;11.04;59.65;95275.13;5093310;28;20051;-73
2021/05/21 06:11:39;;;;;;;2.92;0.90;;;;;;;11.05;58.32;95282.72;5092384;28;20043;-73
2021/05/21 06:14:05;;;;;;;0.95;0.95;;;;;;;11.24;58.57;95274.91;5093341;28;20044;-72
2021/05/21 06:16:30;;;;;;;0.82;0.80;;;;;;;11.35;58.73;95269.53;5108010;28;20481;-72
2021/05/21 06:18:56;;;;;;;1.15;0.63;;;;;;;11.48;57.64;95268.88;5107824;28;20047;-72
2021/05/21 06:21:22;;;;;;;3.63;0.95;;;;;;;11.71;55.77;95261.22;5112829;28;20502;-73
2021/05/21 06:23:47;;;;;;;0.95;0.88;;;;;;;11.79;56.06;95264.03;5113622;27;20047;-72
2021/05/21 06:26:19;;;;;;;0.90;0.88;;;;;;;12.00;54.63;95263.03;5112175;27;20424;-73
2021/05/21 06:28:45;;;;;;;0.68;0.68;;;;;;;12.05;53.33;95252.41;5111018;28;20058;-71
2021/05/21 06:31:12;;;;;;;0.70;0.70;;;;;;;12.05;54.02;95249.75;5097564;28;20039;-71
2021/05/21 06:33:38;;;;;;;5.00;0.80;;;;;;;12.08;54.45;95254.47;5104653;28;20601;-72
2021/05/21 06:36:04;;;;;;;0.80;0.80;;;;;;;12.17;53.95;95257.25;5106308;28;20105;-72
2021/05/21 06:38:30;;;;;;;1.95;0.90;;;;;;;12.26;52.05;95255.53;5107099;28;20044;-72
2021/05/21 06:40:56;;;;;;;1.90;0.95;;;;;;;12.38;52.85;95255.09;5107182;28;20035;-72
2021/05/21 06:43:21;;;;;;;0.60;0.60;;;;;;;12.46;52.54;95249.19;5105796;28;20073;-72
2021/05/21 06:45:49;;;;;;;1.73;1.05;;;;;;;12.60;53.12;95242.09;5112925;28;20039;-72
2021/05/21 06:48:15;;;;;;;1.48;1.08;;;;;;;12.66;51.71;95248.09;5099159;28;20048;-72
2021/05/21 06:50:42;;;;;;;4.40;1.08;;;;;;;12.61;52.17;95240.22;5102812;28;20055;-72
2021/05/21 06:53:09;;;;;;;0.88;0.88;;;;;;;12.75;52.14;95235.00;5112485;27;20040;-72
2021/05/21 06:55:35;;;;;;;1.40;1.00;;;;;;;12.89;50.64;95241.09;5102015;28;20062;-72
2021/05/21 06:58:01;;;;;;;1.27;0.75;;;;;;;12.98;51.60;95236.72;5109741;28;20044;-72
2021/05/21 07:00:26;;;;;;;2.25;0.90;;;;;;;13.03;50.59;95240.34;5112673;28;20104;-72
2021/05/21 07:02:52;;;;;;;2.03;0.90;;;;;;;13.03;51.41;95240.34;5112248;28;20031;-72
2021/05/21 07:05:18;;;;;;;1.63;0.95;;;;;;;13.11;50.37;95231.75;5112142;28;20040;-72
2021/05/21 07:07:45;;;;;;;1.20;1.10;;;;;;;13.07;49.05;95226.25;5099146;28;20039;-72
2021/05/21 07:10:12;;;;;;;2.92;1.00;;;;;;;13.12;49.91;95228.03;5107316;28;20059;-72
2021/05/21 07:12:38;;;;;;;0.98;0.98;;;;;;;13.21;49.91;95215.72;5112196;28;20047;-72
2021/05/21 07:15:05;;;;;;;1.30;1.02;;;;;;;13.20;50.08;95214.13;5112068;28;20043;-72
2021/05/21 07:17:31;;;;;;;0.88;0.88;;;;;;;13.29;50.45;95212.38;5110965;28;20122;-73
2021/05/21 07:19:56;;;;;;;1.85;0.90;;;;;;;13.27;49.62;95208.47;5107226;28;20573;-72
2021/05/21 07:22:22;;;;;;;1.33;0.98;;;;;;;13.43;51.04;95211.63;5112069;28;20039;-72
2021/05/21 07:24:49;;;;;;;1.23;0.90;;;;;;;13.61;49.87;95213.38;5111862;28;20044;-72
2021/05/21 07:27:14;;;;;;;0.65;0.63;;;;;;;13.71;49.37;95206.34;5110659;28;20063;-72
2021/05/21 07:29:40;;;;;;;1.08;0.90;;;;;;;13.87;48.50;95204.91;5104056;28;20478;-72
2021/05/21 07:32:07;;;;;;;0.90;0.90;;;;;;;13.89;47.97;95202.75;5103605;28;20046;-72
2021/05/21 07:34:33;;;;;;;1.02;1.00;;;;;;;14.07;48.11;95202.94;5111720;28;20047;-72
2021/05/21 07:36:59;;;;;;;1.75;1.00;;;;;;;14.16;47.32;95201.13;5110414;28;20410;-72
2021/05/21 07:39:24;;;;;;;1.58;1.02;;;;;;;14.17;46.75;95192.09;5100211;28;20066;-72
2021/05/21 07:41:51;;;;;;;1.20;1.00;;;;;;;14.26;47.18;95195.59;5110491;28;20505;-72
2021/05/21 07:44:17;;;;;;;1.88;0.90;;;;;;;14.51;46.92;95190.78;5093644;28;20493;-72
2021/05/21 07:46:42;;;;;;;1.17;1.08;;;;;;;14.47;46.60;95195.13;5091156;28;20047;-72
2021/05/21 07:49:08;;;;;;;0.98;0.98;;;;;;;14.53;44.86;95183.31;5090856;28;20458;-72
2021/05/21 07:51:33;;;;;;;1.27;1.08;;;;;;;14.71;45.39;95184.22;5107520;28;20051;-72
2021/05/21 07:53:59;;;;;;;1.95;1.10;;;;;;;14.85;46.34;95194.75;5111885;28;20052;-72
2021/05/21 07:56:25;;;;;;;1.70;1.05;;;;;;;14.73;45.23;95196.09;5111697;28;20039;-72
2021/05/21 07:58:50;;;;;;;1.80;1.15;;;;;;;14.67;46.45;95197.31;5106581;28;20036;-72
2021/05/21 08:01:16;;;;;;;1.10;0.70;;;;;;;14.75;45.92;95189.72;5110074;28;20123;-72
2021/05/21 08:03:41;;;;;;;3.33;1.10;;;;;;;14.57;44.18;95189.59;5107458;28;20497;-72
2021/05/21 08:06:07;;;;;;;1.23;0.93;;;;;;;14.64;44.38;95187.31;5110982;28;20040;-72
2021/05/21 08:08:32;;;;;;;0.93;0.90;;;;;;;14.65;44.71;95180.94;5104002;28;20040;-72
2021/05/21 08:11:03;;;;;;;1.80;1.15;;;;;;;14.59;45.40;95171.50;5102877;28;20101;-72
2021/05/21 08:13:28;;;;;;;1.52;0.90;;;;;;;14.77;44.64;95175.09;5106170;28;20042;-72
2021/05/21 08:15:54;;;;;;;1.25;1.10;;;;;;;14.82;43.43;95168.88;5109823;28;20056;-72
2021/05/21 08:18:20;;;;;;;1.40;1.00;;;;;;;14.85;43.21;95162.97;5110880;28;20043;-72
2021/05/21 08:20:47;;;;;;;2.42;1.08;;;;;;;14.70;44.10;95167.56;5110256;28;20050;-72
2021/05/21 08:23:16;;;;;;;1.33;0.93;;;;;;;14.69;44.93;95165.22;5110260;27;20110;-72
2021/05/21 08:25:43;;;;;;;1.42;1.00;;;;;;;14.81;44.17;95172.59;5105269;28;20036;-72
2021/05/21 08:28:09;;;;;;;1.83;0.90;;;;;;;14.82;44.55;95176.81;5090568;28;20051;-72
2021/05/21 08:30:35;;;;;;;0.90;0.90;;;;;;;14.83;43.53;95186.34;5098225;28;20031;-72
2021/05/21 08:33:01;;;;;;;1.00;0.90;;;;;;;14.57;44.89;95168.41;5110651;28;20078;-73
2021/05/21 08:35:27;;;;;;;0.70;0.70;;;;;;;14.55;44.53;95175.84;5108371;28;20123;-73
2021/05/21 08:37:52;;;;;;;2.38;1.00;;;;;;;14.68;44.94;95172.38;5110389;28;20050;-72
2021/05/21 08:40:23;;;;;;;1.20;1.08;;;;;;;15.00;44.20;95181.13;5095549;28;20051;-72
2021/05/21 08:42:59;;;;;;;2.53;1.00;;;;;;;14.99;44.86;95171.59;5109891;28;20047;-72
2021/05/21 08:45:28;;;;;;;1.20;1.10;;;;;;;15.06;45.09;95161.34;5090310;28;20130;-72
2021/05/21 08:47:54;;;;;;;2.88;1.30;;;;;;;14.92;44.47;95165.19;5095708;28;20054;-72
2021/05/21 08:50:21;;;;;;;2.72;0.93;;;;;;;14.92;44.90;95160.66;5108237;28;20044;-72
2021/05/21 08:52:47;;;;;;;0.90;0.90;;;;;;;14.95;45.30;95173.28;5108043;28;20156;-72
2021/05/21 08:55:15;;;;;;;0.80;0.80;;;;;;;14.87;45.60;95166.88;5105232;28;20047;-72
2021/05/21 08:57:42;;;;;;;4.00;1.05;;;;;;;15.01;45.95;95160.69;5110701;28;20040;-72
2021/05/21 09:00:08;;;;;;;1.92;0.90;;;;;;;15.03;46.41;95164.59;5110654;28;20035;-72
2021/05/21 09:02:34;;;;;;;0.77;0.77;;;;;;;15.14;45.12;95159.03;5100415;28;20586;-72
2021/05/21 09:05:01;;;;;;;1.10;0.98;;;;;;;15.17;45.48;95147.81;5109905;28;20050;-72
2021/05/21 09:07:28;;;;;;;1.10;1.00;;;;;;;15.12;45.33;95145.31;5110914;28;20070;-72
2021/05/21 09:09:55;;;;;;;3.13;1.10;;;;;;;15.00;44.70;95138.72;5106400;28;20048;-72
2021/05/21 09:12:23;;;;;;;1.60;1.40;;;;;;;15.03;45.65;95148.69;5103291;28;20114;-72
2021/05/21 09:15:07;;;;;;;0.75;0.75;;;;;;;14.99;45.51;95153.03;5109963;28;20417;-72
2021/05/21 09:17:33;;;;;;;;;;;;;;;14.99;45.43;95163.63;5093868;28;20040;-72
2021/05/21 09:19:59;;;;;;;1.25;1.00;;;;;;;14.72;49.42;95165.41;5090011;28;19972;-72
2021/05/21 09:22:25;;;;;;;0.82;0.82;;;;;;;14.14;51.74;95166.25;5102290;28;20047;-71
2021/05/21 09:24:52;;;;;;;2.08;1.00;;;;;;;13.83;53.71;95164.28;5109009;28;20462;-72
2021/05/21 09:27:19;;;;;;;2.33;1.10;;;;;;;13.64;53.04;95149.31;5109754;28;20040;-72
2021/05/21 09:29:49;;;;;;;1.02;0.93;;;;;;;13.73;55.66;95146.00;5109702;28;20040;-72
2021/05/21 09:32:21;;;;;;;1.73;1.10;;;;;;;13.98;53.67;95137.47;5110413;28;20357;-72
2021/05/21 09:35:13;;;;;;;1.00;0.90;;;;;;;14.41;52.02;95132.78;5104061;28;20400;-72
2021/05/21 09:37:54;;;;;;;3.60;1.27;;;;;;;14.81;50.60;95119.63;5110333;28;20048;-72
2021/05/21 09:40:24;;;;;;;1.17;1.08;;;;;;;15.17;51.67;95121.28;5106839;28;20033;-72
2021/05/21 09:42:54;;;;;;;1.13;1.02;;;;;;;15.46;51.19;95130.56;5102539;28;20047;-72
2021/05/21 09:45:27;;;;;;;1.23;0.90;;;;;;;15.67;48.35;95128.88;5109608;28;20040;-72
2021/05/21 09:47:59;;;;;;;3.08;0.90;;;;;;;15.77;48.06;95133.09;5105927;28;20528;-72
2021/05/21 09:50:44;;;;;;;1.17;0.90;;;;;;;15.79;43.98;95124.84;5112704;28;20031;-70
2021/05/21 09:53:24;;;;;;;1.52;0.90;;;;;;;15.76;45.53;95131.56;5113916;28;20047;-72
2021/05/21 09:55:51;;;;;;;1.20;1.10;;;;;;;15.72;47.04;95131.38;5093364;28;20044;-72
2021/05/21 09:58:23;;;;;;;1.00;0.90;;;;;;;15.72;46.06;95126.09;5104031;28;20101;-72
2021/05/21 10:01:08;;;;;;;1.25;0.90;;;;;;;15.70;45.76;95120.31;5111897;28;20405;-72
2021/05/21 10:03:34;;;;;;;1.13;1.00;;;;;;;15.46;48.14;95117.31;5108834;28;20035;-72
2021/05/21 10:06:01;;;;;;;1.20;0.95;;;;;;;15.28;48.64;95114.63;5112176;28;20039;-72
2021/05/21 10:08:26;;;;;;;0.82;0.82;;;;;;;15.30;46.70;95111.66;5109516;28;20039;-72
2021/05/21 10:10:52;;;;;;;1.13;0.90;;;;;;;15.44;46.75;95114.19;5113400;28;20154;-72
2021/05/21 10:13:18;;;;;;;0.80;0.80;;;;;;;15.50;47.02;95112.94;5093560;28;20036;-72
2021/05/21 10:15:43;;;;;;;3.55;1.00;;;;;;;15.61;47.78;95116.84;5111493;28;20063;-73
2021/05/21 10:18:13;;;;;;;0.95;0.82;;;;;;;15.51;49.46;95109.22;5112193;28;20040;-72
2021/05/21 10:20:39;;;;;;;2.78;1.00;;;;;;;15.54;50.00;95119.19;5113315;28;20052;-72
2021/05/21 10:23:06;;;;;;;1.33;0.90;;;;;;;15.72;49.08;95120.78;5110116;27;20266;-72
2021/05/21 10:25:34;;;;;;;6.20;1.75;;;;;;;15.85;51.17;95113.78;5110533;28;20036;-72
2021/05/21 10:28:04;;;;;;;1.70;1.15;;;;;;;15.92;47.42;95118.63;5092985;28;20442;-72
2021/05/21 10:30:33;;;;;;;2.15;0.98;;;;;;;16.06;47.17;95121.91;5106461;28;20084;-73
2021/05/21 10:33:28;;;;;;;1.85;1.15;;;;;;;16.42;45.83;95120.75;5110650;28;20160;-72
2021/05/21 10:36:23;;;;;;;2.22;1.30;;;;;;;16.41;46.10;95113.88;5101648;28;20054;-72
2021/05/21 10:39:03;;;;;;;1.33;0.95;;;;;;;16.39;45.82;95120.59;5089895;28;20052;-72
2021/05/21 10:41:28;;;;;;;1.83;1.05;;;;;;;16.42;46.66;95126.06;5109589;28;20115;-72
2021/05/21 10:43:55;;;;;;;1.25;0.95;;;;;;;16.50;45.97;95131.69;5108730;28;20035;-73
2021/05/21 10:46:22;;;;;;;2.92;1.20;;;;;;;16.45;46.64;95136.06;5109447;28;20047;-72
2021/05/21 10:48:55;;;;;;;1.88;1.02;;;;;;;16.23;47.42;95139.69;5112406;28;20036;-72
2021/05/21 10:51:23;;;;;;;1.75;1.10;;;;;;;16.10;45.98;95146.72;5112480;28;20055;-72
2021/05/21 10:54:27;;;;;;;2.17;1.35;;;;;;;15.83;47.51;95152.34;5101452;28;20059;-72
2021/05/21 10:56:57;;;;;;;1.30;1.13;;;;;;;15.61;48.37;95156.66;5092375;28;20047;-72
2021/05/21 10:59:42;;;;;;;1.85;1.10;;;;;;;15.53;48.91;95155.56;5105962;28;20050;-72
2021/05/21 11:02:09;;;;;;;1.65;1.10;;;;;;;15.26;50.49;95161.88;5112031;28;20497;-73
2021/05/21 11:04:35;;;;;;;2.35;1.20;;;;;;;15.21;50.74;95169.97;5108472;28;20129;-72
2021/05/21 11:07:03;;;;;;;3.22;1.20;;;;;;;15.15;48.88;95171.19;5112169;28;20134;-72
2021/05/21 11:09:41;;;;;;;4.22;1.42;;;;;;;14.70;50.77;95172.84;5097875;28;20044;-72
2021/05/21 11:12:14;;;;;;;1.23;1.15;;;;;;;14.68;51.17;95172.38;5098568;28;20081;-72
2021/05/21 11:14:45;;;;;;;3.20;1.10;;;;;;;14.38;52.71;95177.31;5109836;28;20031;-72
2021/05/21 11:17:16;;;;;;;1.60;1.20;;;;;;;14.36;54.31;95184.75;5107767;28;20032;-72
2021/05/21 11:19:48;;;;;;;2.17;1.35;;;;;;;14.21;55.58;95182.50;5105675;28;20067;-71
2021/05/21 11:22:42;;;;;;;2.90;1.38;;;;;;;13.93;57.68;95195.00;5111601;28;20048;-70
2021/05/21 11:25:14;;;;;;;2.38;1.23;;;;;;;13.78;59.02;95206.72;5109854;28;20509;-70
2021/05/21 11:27:40;;;;;;;2.22;1.23;;;;;;;13.65;59.28;95195.84;5110322;28;20110;-73
2021/05/21 11:30:08;;;;;;;1.15;1.05;;;;;;;13.74;60.10;95195.94;5112264;28;20036;-72
2021/05/21 11:32:37;;;;;;;1.77;1.48;;;;;;;13.61;59.24;95192.22;5111931;28;20105;-71
2021/05/21 11:35:08;;;;;;;1.58;1.17;;;;;;;13.79;62.60;95197.69;5107241;28;20054;-72
2021/05/21 11:37:33;;;;;;;2.92;1.50;;;;;;;13.90;60.43;95193.75;5111918;28;20043;-71